Time;durP1;ratioP1;P1;durP2;ratioP2;P2;SDS_P1;SDS_P2;PMS_P1;PMS_P2;Temp;Humidity;BMP_temperature;BMP_pressure;BME280_temperature;BME280_humidity;BME280_pressure;Samples;Min_cycle;Max_cycle;Signal;HPM_P1;HPM_P2
2022/07/14 00:01:36;;;;;;;6.20;5.60;;;15.10;99.90;;;;;;21051105;28;20435;-59
2022/07/14 00:11:39;;;;;;;5.68;4.75;;;15.40;99.90;;;;;;21049716;28;20044;-59
2022/07/14 00:21:42;;;;;;;5.50;4.95;;;15.70;99.90;;;;;;21035572;28;20095;-53
2022/07/14 00:31:44;;;;;;;7.82;5.40;;;15.80;99.90;;;;;;20980153;28;20032;-59
2022/07/14 00:41:47;;;;;;;5.53;4.85;;;15.90;99.90;;;;;;20980559;28;20090;-59
2022/07/14 00:51:50;;;;;;;9.13;5.53;;;16.00;99.90;;;;;;20980213;28;20133;-59
2022/07/14 01:01:52;;;;;;;7.10;4.43;;;16.00;99.90;;;;;;21041652;28;20473;-59
2022/07/14 01:11:55;;;;;;;6.68;5.22;;;15.90;99.90;;;;;;21061427;28;20645;-59
2022/07/14 01:21:57;;;;;;;7.90;5.22;;;15.80;99.90;;;;;;21061083;28;20040;-55
2022/07/14 01:32:00;;;;;;;7.38;6.13;;;15.90;99.90;;;;;;21060419;28;20036;-58
2022/07/14 01:42:02;;;;;;;7.95;5.78;;;15.90;99.90;;;;;;21058783;28;20040;-54
2022/07/14 01:52:06;;;;;;;10.75;6.90;;;15.80;99.90;;;;;;20966873;28;20029;-59
2022/07/14 02:02:12;;;;;;;9.05;6.68;;;15.60;99.90;;;;;;20958040;28;20649;-60
2022/07/14 02:12:15;;;;;;;6.47;5.45;;;15.60;99.90;;;;;;20973770;28;20052;-59
2022/07/14 02:22:19;;;;;;;7.50;5.70;;;15.60;99.90;;;;;;20968668;28;20036;-59
2022/07/14 02:32:21;;;;;;;10.10;6.63;;;15.60;99.90;;;;;;21056964;28;20036;-59
2022/07/14 02:42:24;;;;;;;7.40;5.78;;;15.40;99.90;;;;;;21054834;28;20514;-59
2022/07/14 02:52:26;;;;;;;8.65;6.25;;;15.40;99.90;;;;;;21053557;28;20484;-59
2022/07/14 03:02:31;;;;;;;11.20;8.05;;;15.20;99.90;;;;;;20986309;28;20113;-59
2022/07/14 03:12:34;;;;;;;12.05;8.15;;;15.10;99.90;;;;;;21002664;28;20133;-59
2022/07/14 03:22:36;;;;;;;11.77;7.93;;;15.00;99.90;;;;;;20985202;28;20040;-55
2022/07/14 03:32:46;;;;;;;11.85;8.93;;;15.00;99.90;;;;;;20951656;28;20033;-59
2022/07/14 03:42:49;;;;;;;9.23;7.60;;;14.80;99.90;;;;;;20984960;28;20029;-59
2022/07/14 03:52:51;;;;;;;10.50;8.63;;;14.80;99.90;;;;;;21033334;28;20032;-59
2022/07/14 04:02:56;;;;;;;9.85;7.80;;;15.00;99.90;;;;;;21044022;28;20419;-53
2022/07/14 04:13:05;;;;;;;11.93;7.50;;;15.10;99.90;;;;;;21066561;28;20064;-59
2022/07/14 04:23:08;;;;;;;9.55;7.65;;;15.30;99.90;;;;;;21032152;28;20090;-55
2022/07/14 04:33:11;;;;;;;7.75;6.95;;;15.50;99.90;;;;;;20965485;28;20481;-59
2022/07/14 04:43:14;;;;;;;10.55;6.82;;;15.70;99.90;;;;;;20964491;28;20029;-59
2022/07/14 04:53:17;;;;;;;6.85;6.20;;;16.10;99.90;;;;;;20963679;28;20086;-59
2022/07/14 05:03:42;;;;;;;6.65;5.85;;;16.50;99.90;;;;;;21055577;28;20086;-59
2022/07/14 05:13:45;;;;;;;6.93;5.35;;;16.80;99.90;;;;;;21044667;28;20450;-59
2022/07/14 05:23:48;;;;;;;8.80;5.35;;;17.00;99.90;;;;;;21061566;28;20036;-55
2022/07/14 05:33:52;;;;;;;6.00;4.70;;;17.30;99.90;;;;;;21060572;28;20036;-59
2022/07/14 05:43:55;;;;;;;5.75;4.20;;;17.60;99.90;;;;;;21035148;28;20036;-59
2022/07/14 05:53:58;;;;;;;4.82;4.05;;;17.90;99.90;;;;;;20977053;28;20539;-59
2022/07/14 06:04:03;;;;;;;6.75;3.67;;;18.40;99.90;;;;;;20974483;28;20090;-60
2022/07/14 06:14:07;;;;;;;8.20;5.03;;;19.90;99.90;;;;;;20957259;28;20106;-55
2022/07/14 06:24:12;;;;;;;7.90;5.28;;;20.10;99.90;;;;;;20977896;28;20024;-60
2022/07/14 06:34:14;;;;;;;10.48;5.80;;;20.90;99.90;;;;;;21056129;28;20105;-60
2022/07/14 06:44:29;;;;;;;4.57;4.00;;;21.40;99.80;;;;;;21038854;28;20031;-61
2022/07/14 06:54:31;;;;;;;4.90;3.90;;;21.50;99.90;;;;;;21036592;28;20036;-61
2022/07/14 07:04:34;;;;;;;5.82;4.50;;;21.90;99.90;;;;;;20970101;28;20102;-57
2022/07/14 07:14:36;;;;;;;11.00;5.22;;;22.50;99.90;;;;;;20969749;28;20386;-61
2022/07/14 07:24:39;;;;;;;6.05;4.28;;;23.40;97.30;;;;;;20968824;28;20623;-58
2022/07/14 07:34:41;;;;;;;5.80;3.70;;;24.10;97.70;;;;;;20967602;28;20037;-58
2022/07/14 07:44:44;;;;;;;4.18;3.78;;;;;;;;;;20982362;28;20085;-63
2022/07/14 07:54:47;;;;;;;4.47;4.03;;;25.50;99.10;;;;;;21026484;28;20044;-63
2022/07/14 08:04:50;;;;;;;4.32;2.30;;;25.70;97.70;;;;;;21050783;28;20062;-62
2022/07/14 08:14:52;;;;;;;5.82;3.60;;;26.10;94.70;;;;;;21049888;28;20386;-62
2022/07/14 08:24:56;;;;;;;4.18;3.10;;;26.90;92.00;;;;;;21017589;28;20040;-62
2022/07/14 08:35:00;;;;;;;4.65;3.17;;;28.40;87.70;;;;;;20965373;28;20032;-63
2022/07/14 08:45:12;;;;;;;4.80;2.97;;;28.70;90.10;;;;;;20967298;28;20048;-58
2022/07/14 08:55:16;;;;;;;5.20;3.60;;;29.50;88.20;;;;;;20986997;28;20089;-62
2022/07/14 09:05:18;;;;;;;6.05;3.58;;;29.30;84.40;;;;;;21062708;28;20028;-63
2022/07/14 09:25:45;;;;;;;6.63;3.78;;;28.90;85.20;;;;;;21061737;28;20032;-61
2022/07/14 09:35:47;;;;;;;3.22;2.85;;;29.30;84.70;;;;;;21060753;28;20028;-59
2022/07/14 09:45:50;;;;;;;4.85;3.42;;;29.40;83.50;;;;;;21035554;28;20526;-63
2022/07/14 09:56:10;;;;;;;4.68;4.28;;;29.70;82.00;;;;;;20975023;28;20082;-63
2022/07/14 10:06:14;;;;;;;3.92;3.00;;;30.00;78.30;;;;;;20974451;28;20558;-58
2022/07/14 10:16:17;;;;;;;9.07;4.35;;;30.00;84.40;;;;;;20973847;28;20024;-63
2022/07/14 10:26:20;;;;;;;7.35;3.17;;;30.00;80.50;;;;;;21016540;28;20032;-63
2022/07/14 10:37:03;;;;;;;5.57;3.72;;;30.10;81.20;;;;;;21055350;28;20085;-63
2022/07/14 10:47:07;;;;;;;4.35;3.20;;;30.40;77.30;;;;;;21043929;28;20044;-63
2022/07/14 10:57:17;;;;;;;6.50;3.92;;;30.10;79.30;;;;;;21030693;28;20033;-63
2022/07/14 11:07:50;;;;;;;5.18;3.53;;;30.30;78.30;;;;;;20969127;28;20390;-63
2022/07/14 11:17:52;;;;;;;3.75;3.03;;;30.60;80.70;;;;;;20970398;28;20040;-63
2022/07/14 11:27:54;;;;;;;3.33;2.80;;;30.90;79.20;;;;;;20968711;28;20036;-60
2022/07/14 11:38:25;;;;;;;4.07;3.00;;;31.20;76.80;;;;;;20967983;28;20094;-63
2022/07/14 11:48:39;;;;;;;5.65;3.00;;;30.90;78.10;;;;;;21013503;28;20396;-63
2022/07/14 11:58:42;;;;;;;6.45;3.40;;;31.10;79.30;;;;;;21050696;28;20096;-63
2022/07/14 12:08:45;;;;;;;7.03;3.65;;;31.30;76.80;;;;;;21049686;28;20059;-59
2022/07/14 12:18:50;;;;;;;7.53;3.80;;;31.60;75.20;;;;;;21050002;28;20089;-61
2022/07/14 12:28:55;;;;;;;9.00;3.20;;;31.30;73.00;;;;;;21000424;28;20036;-63
2022/07/14 12:39:04;;;;;;;4.25;3.50;;;30.00;77.80;;;;;;20981979;28;20062;-63
2022/07/14 12:49:08;;;;;;;7.18;3.92;;;29.90;77.40;;;;;;20980649;28;20037;-63
2022/07/14 12:59:20;;;;;;;5.10;3.60;;;30.50;75.80;;;;;;21019735;28;20036;-63
2022/07/14 13:09:22;;;;;;;7.22;4.07;;;29.70;77.40;;;;;;21062718;28;20128;-58
2022/07/14 13:19:25;;;;;;;5.15;3.90;;;28.80;79.70;;;;;;21061902;28;20036;-59
2022/07/14 13:29:30;;;;;;;7.50;3.92;;;28.60;80.70;;;;;;21061930;28;20093;-63
2022/07/14 13:39:34;;;;;;;16.10;6.03;;;28.80;80.70;;;;;;21059103;28;20644;-63
2022/07/14 13:59:58;;;;;;;8.02;3.78;;;30.20;78.70;;;;;;20975237;28;20056;-63
2022/07/14 14:10:00;;;;;;;162.23;51.03;;;31.20;77.90;;;;;;20974040;28;20048;-63
2022/07/14 14:20:03;;;;;;;112.97;27.45;;;31.10;76.50;;;;;;20973793;28;20048;-63
2022/07/14 14:30:06;;;;;;;64.65;14.38;;;32.20;75.80;;;;;;21031646;28;20450;-63
2022/07/14 14:40:09;;;;;;;76.35;16.63;;;30.80;76.00;;;;;;21055565;28;20036;-63
2022/07/14 14:50:13;;;;;;;6.40;3.75;;;29.10;79.70;;;;;;21054807;28;20028;-63
2022/07/14 15:00:16;;;;;;;6.03;5.43;;;29.80;78.30;;;;;;21004642;28;20036;-63
2022/07/14 15:10:19;;;;;;;5.97;4.30;;;31.20;72.20;;;;;;20968560;28;20049;-63
2022/07/14 15:20:22;;;;;;;32.10;7.70;;;31.30;73.30;;;;;;20968335;28;20511;-63
2022/07/14 15:30:26;;;;;;;7.80;4.57;;;32.30;72.00;;;;;;20950846;28;20048;-63
2022/07/14 15:50:51;;;;;;;7.03;4.80;;;32.30;70.10;;;;;;21031834;28;20066;-63
2022/07/14 16:00:53;;;;;;;4.82;4.40;;;32.00;70.30;;;;;;21049068;28;20036;-63
2022/07/14 16:10:55;;;;;;;5.72;4.13;;;31.00;71.00;;;;;;21049116;28;20044;-63
2022/07/14 16:20:59;;;;;;;6.32;4.72;;;30.10;72.50;;;;;;21048842;28;20108;-62
2022/07/14 16:31:01;;;;;;;6.65;4.00;;;27.60;76.20;;;;;;20965426;28;20547;-61
2022/07/14 16:41:08;;;;;;;3.70;3.08;;;25.70;80.10;;;;;;20966083;28;20468;-61
2022/07/14 16:51:11;;;;;;;4.57;3.55;;;25.30;82.70;;;;;;20965260;28;20082;-61
2022/07/14 17:01:13;;;;;;;8.70;4.80;;;24.50;84.50;;;;;;21021346;28;20040;-61
2022/07/14 17:11:16;;;;;;;5.28;4.00;;;23.40;87.90;;;;;;21055378;28;20048;-61
2022/07/14 17:21:20;;;;;;;7.32;5.47;;;22.40;90.80;;;;;;21060032;28;20036;-60
2022/07/14 17:31:23;;;;;;;5.22;4.68;;;21.60;91.90;;;;;;21059929;28;20084;-60
2022/07/14 17:41:26;;;;;;;5.95;4.10;;;20.90;93.20;;;;;;21059120;28;20044;-60
2022/07/14 18:01:50;;;;;;;8.25;5.40;;;19.90;95.50;;;;;;20974394;28;20496;-60
2022/07/14 18:11:53;;;;;;;5.97;5.25;;;19.50;96.50;;;;;;20972912;28;20045;-60
2022/07/14 18:21:56;;;;;;;6.45;5.63;;;19.20;97.10;;;;;;20978632;28;20097;-60
2022/07/14 18:31:58;;;;;;;6.60;5.90;;;19.00;97.50;;;;;;21054840;28;20112;-60
2022/07/14 18:42:00;;;;;;;6.22;5.50;;;18.80;98.30;;;;;;21037090;28;20040;-60
2022/07/14 18:52:04;;;;;;;8.95;6.30;;;18.40;99.10;;;;;;21053567;28;20117;-60
2022/07/14 19:02:07;;;;;;;8.32;6.95;;;18.10;99.80;;;;;;20987459;28;20086;-60
2022/07/14 19:12:10;;;;;;;9.73;6.72;;;17.80;99.90;;;;;;20967316;28;20045;-59
2022/07/14 19:22:15;;;;;;;11.35;7.15;;;17.50;99.90;;;;;;20968803;28;20074;-54
2022/07/14 19:32:17;;;;;;;9.02;7.25;;;17.40;99.90;;;;;;20967179;28;20074;-60
2022/07/14 19:42:20;;;;;;;11.10;7.72;;;17.20;99.90;;;;;;20967574;28;20054;-59
2022/07/14 19:52:24;;;;;;;8.80;7.03;;;17.10;99.90;;;;;;21046660;28;20069;-59
2022/07/14 20:02:28;;;;;;;10.02;8.15;;;16.90;99.90;;;;;;21050759;28;20385;-59
2022/07/14 20:12:30;;;;;;;16.50;8.27;;;16.90;99.90;;;;;;21048730;28;20172;-59
2022/07/14 20:22:33;;;;;;;11.98;8.65;;;16.80;99.90;;;;;;21036650;28;20101;-59
2022/07/14 20:32:48;;;;;;;10.70;6.82;;;17.70;99.90;;;;;;20964836;28;20032;-52
2022/07/14 20:42:51;;;;;;;8.38;6.97;;;17.80;99.90;;;;;;20969322;28;20037;-59
2022/07/14 20:52:55;;;;;;;11.07;8.20;;;17.60;99.90;;;;;;20978886;28;20117;-59
2022/07/14 21:02:58;;;;;;;14.35;8.63;;;17.60;99.90;;;;;;21049718;28;20499;-54
2022/07/14 21:13:00;;;;;;;11.93;8.90;;;17.50;99.90;;;;;;21060963;28;20059;-59
2022/07/14 21:23:03;;;;;;;9.45;7.53;;;17.90;99.90;;;;;;21060424;28;20040;-59
2022/07/14 21:33:06;;;;;;;14.45;9.52;;;18.00;99.90;;;;;;21060775;28;20089;-59
2022/07/14 21:43:08;;;;;;;16.00;13.93;;;18.50;99.90;;;;;;21058336;28;20040;-55
2022/07/14 21:53:12;;;;;;;24.98;16.95;;;19.40;99.90;;;;;;20975185;28;20063;-52
2022/07/14 22:03:15;;;;;;;13.05;10.20;;;20.50;99.90;;;;;;20974447;28;20044;-59
2022/07/14 22:13:17;;;;;;;15.27;13.68;;;20.60;98.80;;;;;;20974318;28;20052;-56
2022/07/14 22:23:20;;;;;;;15.25;11.30;;;20.30;99.10;;;;;;20991671;28;20549;-59
2022/07/14 22:33:22;;;;;;;13.30;11.00;;;19.70;99.40;;;;;;21055826;28;20093;-59
2022/07/14 22:43:25;;;;;;;14.02;10.60;;;19.00;99.90;;;;;;21056357;28;20039;-59
2022/07/14 22:53:28;;;;;;;11.60;10.35;;;18.40;99.90;;;;;;21055111;28;20032;-59
2022/07/14 23:03:31;;;;;;;16.80;11.60;;;18.00;99.90;;;;;;20977914;28;20041;-59
2022/07/14 23:13:33;;;;;;;14.45;9.40;;;17.80;99.90;;;;;;20970164;28;20106;-60
2022/07/14 23:23:35;;;;;;;14.20;9.20;;;17.70;99.90;;;;;;20969454;28;20090;-59
2022/07/14 23:33:38;;;;;;;13.32;11.93;;;17.50;99.90;;;;;;20968821;28;20086;-52
2022/07/14 23:43:41;;;;;;;15.48;10.90;;;17.40;99.90;;;;;;20974105;28;20036;-54
2022/07/14 23:53:43;;;;;;;13.60;10.55;;;17.10;99.90;;;;;;21052129;28;20032;-59
